Airfield :
LOGIN :

Register | Disclaimer

   EN    FR    IT 

 










Legend :    VFR   Marginal VFR   IFR   Intensive IFR   Very Intensive IFR
Visi :
Ceiling :
>= 8 km
>= 3000ft
5 to 8 km
1000 to 3000 ft
1500m to 5 km
500 to 1000 ft
800 to 1500m
200 to 500 ft
< 800m
< 200 ft
Symbols :   Thunderstorms  Fog  Heavy snow  Heavy precipitations  Wind > 20 kt
SIGMETs :     Misc.  Thunderstorms  Icing  Turbulence  Mountain Waves  Volcanic Ashes







- Airport Elevation : 20 ft
- IATA code : LSI
- Download approach charts


EGPB - Sumburgh

CURRENT METAR :
  • 191650Z 16007KT 9999 BKN034 09/02 Q1035

EXPIRED METARs :
  • 191620Z 15008KT 9999 BKN030 08/03 Q1035 NOSIG
  • 191550Z 15009KT 9999 BKN032 08/02 Q1035
  • 191520Z 15008KT 9999 BKN027 08/03 Q1035 NOSIG
  • 191450Z 17011KT 9999 BKN030 09/03 Q1035 NOSIG
  • 191420Z 17012KT 9999 FEW021 BKN030 09/03 Q1035

TAF TAF EGPB
Valid from the 19 at 15:00 until the 20 at 00:00 UTC


191403Z 1915/1924 16012KT 9999 BKN025
BECMG 1918/1921 10012KT
No reported NOTAMs for that airfield.



MET'MAP, your aeronautical weather chart ! - Copyright ORBIFLY December 2007 - Disclaimer

ORBIFLY MET'MAP TEAM :

Programming & Development : Alexandra Zaïnal
Concept & Development : Baudouin d'Aumeries
Co-Development & Prog : Marc-Olivier Méhu
Technical & hardware support : Manuel Goepfert

Contact : metmap@orbifly.com




SOURCES & CREDITS :

   NOAA